Time;durP1;ratioP1;P1;durP2;ratioP2;P2;SDS_P1;SDS_P2;PMS_P1;PMS_P2;Temp;Humidity;BMP_temperature;BMP_pressure;BME280_temperature;BME280_humidity;BME280_pressure;Samples;Min_cycle;Max_cycle;Signal;HPM_P1;HPM_P2
2021/01/26 00:01:12;;;;;;;33.28;12.05;;;;;;;;;;8193979;28;20373;-71
2021/01/26 00:05:16;;;;;;;25.98;11.68;;;;;;;;;;8192171;28;20632;-72
2021/01/26 00:09:21;;;;;;;28.95;10.70;;;;;;;;;;8193739;28;20073;-71
2021/01/26 00:13:24;;;;;;;33.58;12.15;;;;;;;;;;8191929;28;20058;-72
2021/01/26 00:17:27;;;;;;;22.27;10.43;;;;;;;;;;8194227;28;20464;-72
2021/01/26 00:21:30;;;;;;;24.45;11.05;;;;;;;;;;8194032;28;20042;-72
2021/01/26 00:25:37;;;;;;;21.33;9.23;;;;;;;;;;8176489;28;20073;-72
2021/01/26 00:29:40;;;;;;;29.35;10.98;;;;;;;;;;8192285;28;20491;-71
2021/01/26 00:33:43;;;;;;;23.38;10.27;;;;;;;;;;8191777;28;20385;-71
2021/01/26 00:37:46;;;;;;;19.48;9.55;;;;;;;;;;8192670;28;20416;-72
2021/01/26 00:41:50;;;;;;;31.48;11.88;;;;;;;;;;8192961;28;20057;-71
2021/01/26 00:45:53;;;;;;;19.10;8.65;;;;;;;;;;8175783;28;20046;-71
2021/01/26 00:49:56;;;;;;;19.13;8.88;;;;;;;;;;8192367;28;20465;-71
2021/01/26 00:53:59;;;;;;;20.58;7.95;;;;;;;;;;8191475;28;20380;-71
2021/01/26 00:58:06;;;;;;;18.73;8.73;;;;;;;;;;8191607;28;20049;-75
2021/01/26 01:02:11;;;;;;;16.25;8.43;;;;;;;;;;8190604;28;20633;-71
2021/01/26 01:06:16;;;;;;;19.70;8.70;;;;;;;;;;8190968;28;20392;-71
2021/01/26 01:10:23;;;;;;;12.27;7.38;;;;;;;;;;8190937;28;20457;-71
2021/01/26 01:14:27;;;;;;;18.17;7.83;;;;;;;;;;8191664;28;20050;-72
2021/01/26 01:18:30;;;;;;;19.58;8.93;;;;;;;;;;8190536;28;20493;-71
2021/01/26 01:22:33;;;;;;;16.85;8.32;;;;;;;;;;8191364;28;20465;-71
2021/01/26 01:26:37;;;;;;;45.55;15.57;;;;;;;;;;8192166;28;20480;-71
2021/01/26 01:30:40;;;;;;;17.75;8.05;;;;;;;;;;8192048;28;20412;-71
2021/01/26 01:34:43;;;;;;;23.65;9.13;;;;;;;;;;8191366;28;20508;-72
2021/01/26 01:38:46;;;;;;;18.23;8.68;;;;;;;;;;8190227;28;20476;-72
2021/01/26 01:42:52;;;;;;;20.88;9.93;;;;;;;;;;8191643;28;20476;-72
2021/01/26 01:46:59;;;;;;;23.33;7.70;;;;;;;;;;8189678;28;20392;-71
2021/01/26 01:51:13;;;;;;;18.57;7.77;;;;;;;;;;8190784;28;20495;-72
2021/01/26 01:55:20;;;;;;;22.13;9.77;;;;;;;;;;8191749;28;20383;-73
2021/01/26 01:59:30;;;;;;;37.15;13.23;;;;;;;;;;8189162;28;20428;-71
2021/01/26 02:03:37;;;;;;;22.33;8.82;;;;;;;;;;8191913;28;20087;-71
2021/01/26 02:07:41;;;;;;;25.02;10.65;;;;;;;;;;8191940;28;20378;-71
2021/01/26 02:11:47;;;;;;;17.92;7.95;;;;;;;;;;8191073;28;20420;-71
2021/01/26 02:15:56;;;;;;;22.42;10.65;;;;;;;;;;8190163;28;20492;-71
2021/01/26 02:20:35;;;;;;;23.00;9.77;;;;;;;;;;8189567;28;20503;-71
2021/01/26 02:25:02;;;;;;;20.30;10.57;;;;;;;;;;8191171;28;20369;-71
2021/01/26 02:29:45;;;;;;;26.50;11.15;;;;;;;;;;8191170;28;20485;-71
2021/01/26 02:34:10;;;;;;;19.67;10.43;;;;;;;;;;8186595;28;20476;-71
2021/01/26 02:38:57;;;;;;;21.92;10.73;;;;;;;;;;8196912;28;20089;-71
2021/01/26 02:43:16;;;;;;;24.83;11.27;;;;;;;;;;8196746;28;20400;-71
2021/01/26 02:47:52;;;;;;;26.45;11.88;;;;;;;;;;8196789;28;20491;-71
2021/01/26 02:52:33;;;;;;;23.55;11.52;;;;;;;;;;8196185;28;20381;-71
2021/01/26 02:57:03;;;;;;;27.73;12.95;;;;;;;;;;8196250;28;20398;-71
2021/01/26 03:01:07;;;;;;;22.48;10.95;;;;;;;;;;8196306;28;20161;-72
2021/01/26 03:05:24;;;;;;;25.80;12.63;;;;;;;;;;8178756;28;20057;-71
2021/01/26 03:09:37;;;;;;;28.85;13.93;;;;;;;;;;8194053;28;20495;-72
2021/01/26 03:13:52;;;;;;;28.55;13.07;;;;;;;;;;8193569;28;20465;-71
2021/01/26 03:18:12;;;;;;;32.78;14.15;;;;;;;;;;8194244;28;20058;-71
2021/01/26 03:22:21;;;;;;;22.55;12.25;;;;;;;;;;8193497;28;20068;-71
2021/01/26 03:26:27;;;;;;;24.02;12.15;;;;;;;;;;8193396;28;20473;-71
2021/01/26 03:30:38;;;;;;;38.63;15.07;;;;;;;;;;8195062;28;20046;-71
2021/01/26 03:34:42;;;;;;;69.78;22.08;;;;;;;;;;8194065;28;20366;-71
2021/01/26 03:38:47;;;;;;;26.70;12.50;;;;;;;;;;8177266;28;20404;-71
2021/01/26 03:42:51;;;;;;;24.95;11.98;;;;;;;;;;8193196;28;20381;-71
2021/01/26 03:47:34;;;;;;;27.98;12.85;;;;;;;;;;8193998;28;20457;-71
2021/01/26 03:51:53;;;;;;;26.92;11.40;;;;;;;;;;8192609;28;20380;-71
2021/01/26 03:56:24;;;;;;;24.15;10.27;;;;;;;;;;8193202;28;20492;-73
2021/01/26 04:00:33;;;;;;;20.58;8.73;;;;;;;;;;8192582;28;20461;-71
2021/01/26 04:04:51;;;;;;;21.20;9.35;;;;;;;;;;8193908;28;20507;-72
2021/01/26 04:09:00;;;;;;;19.65;9.50;;;;;;;;;;8176346;28;20384;-71
2021/01/26 04:13:08;;;;;;;19.30;8.93;;;;;;;;;;8192448;28;20389;-71
2021/01/26 04:17:23;;;;;;;23.13;10.32;;;;;;;;;;8192221;28;20469;-71
2021/01/26 04:21:30;;;;;;;51.20;17.45;;;;;;;;;;8192008;28;20080;-71
2021/01/26 04:25:41;;;;;;;35.85;13.48;;;;;;;;;;8192243;28;20472;-71
2021/01/26 04:29:44;;;;;;;19.95;9.80;;;;;;;;;;8193512;28;20485;-71
2021/01/26 04:33:48;;;;;;;26.80;10.80;;;;;;;;;;8193192;28;20421;-71
2021/01/26 04:37:51;;;;;;;27.58;9.80;;;;;;;;;;8193274;28;20472;-72
2021/01/26 04:42:09;;;;;;;24.50;10.70;;;;;;;;;;8192986;28;20495;-72
2021/01/26 04:46:34;;;;;;;22.50;9.80;;;;;;;;;;8175718;28;20385;-72
2021/01/26 04:50:59;;;;;;;21.52;9.52;;;;;;;;;;8193200;28;20389;-71
2021/01/26 04:55:11;;;;;;;23.98;10.05;;;;;;;;;;8192736;28;20365;-72
2021/01/26 04:59:39;;;;;;;24.65;9.43;;;;;;;;;;8191267;28;20472;-73
2021/01/26 05:04:05;;;;;;;20.02;9.07;;;;;;;;;;8191155;28;20492;-71
2021/01/26 05:08:18;;;;;;;26.55;9.52;;;;;;;;;;8190223;28;20472;-72
2021/01/26 05:12:23;;;;;;;19.13;9.07;;;;;;;;;;8190987;28;20053;-72
2021/01/26 05:16:39;;;;;;;25.90;10.40;;;;;;;;;;8190768;28;20361;-73
2021/01/26 05:20:47;;;;;;;30.38;10.48;;;;;;;;;;8192074;28;20468;-72
2021/01/26 05:25:08;;;;;;;40.75;13.00;;;;;;;;;;8190000;28;20058;-72
2021/01/26 05:29:13;;;;;;;95.20;19.00;;;;;;;;;;8189859;28;20387;-71
2021/01/26 05:33:16;;;;;;;81.55;19.58;;;;;;;;;;8191891;28;20369;-72
2021/01/26 05:37:20;;;;;;;38.58;13.43;;;;;;;;;;8191929;28;20469;-71
2021/01/26 05:41:23;;;;;;;28.45;12.35;;;;;;;;;;8190214;28;20503;-71
2021/01/26 05:45:32;;;;;;;182.98;32.30;;;;;;;;;;8189982;28;20381;-72
2021/01/26 05:49:39;;;;;;;23.23;10.60;;;;;;;;;;8189734;28;20473;-71
2021/01/26 05:53:43;;;;;;;20.08;9.05;;;;;;;;;;8189909;28;20477;-71
2021/01/26 05:57:49;;;;;;;20.17;9.32;;;;;;;;;;8191594;28;20456;-71
2021/01/26 06:01:53;;;;;;;28.77;10.13;;;;;;;;;;8189470;28;20461;-71
2021/01/26 06:06:09;;;;;;;42.13;13.20;;;;;;;;;;8191333;28;20369;-72
2021/01/26 06:10:21;;;;;;;51.08;13.57;;;;;;;;;;8197250;28;20058;-72
2021/01/26 06:14:24;;;;;;;49.95;13.38;;;;;;;;;;8146726;28;20476;-72
2021/01/26 06:18:27;;;;;;;21.55;9.82;;;;;;;;;;8197153;28;20472;-72
2021/01/26 06:22:31;;;;;;;18.02;8.77;;;;;;;;;;8195395;28;20457;-71
2021/01/26 06:26:40;;;;;;;21.02;9.20;;;;;;;;;;8197209;28;20369;-72
2021/01/26 06:30:49;;;;;;;;;;;;;;;;;;8196049;28;20058;-72
2021/01/26 06:35:14;;;;;;;40.75;11.93;;;;;;;;;;8195063;28;20446;-72
2021/01/26 06:39:28;;;;;;;73.13;19.58;;;;;;;;;;8195022;28;20503;-72
2021/01/26 06:43:54;;;;;;;35.58;10.77;;;;;;;;;;8178595;28;20381;-72
2021/01/26 06:48:12;;;;;;;16.10;8.30;;;;;;;;;;8194522;28;20568;-71
2021/01/26 06:52:32;;;;;;;38.90;11.55;;;;;;;;;;8195157;28;20064;-71
2021/01/26 06:57:23;;;;;;;67.88;15.75;;;;;;;;;;8196173;28;20362;-72
2021/01/26 07:02:43;;;;;;;22.25;9.50;;;;;;;;;;8192172;28;20057;-72
2021/01/26 07:07:29;;;;;;;25.90;10.30;;;;;;;;;;8156509;28;20072;-72
2021/01/26 07:12:05;;;;;;;48.33;12.88;;;;;;;;;;8196150;28;20461;-72
2021/01/26 07:16:42;;;;;;;19.93;9.83;;;;;;;;;;8195566;28;20415;-71
2021/01/26 07:21:13;;;;;;;80.53;17.10;;;;;;;;;;8193533;28;20380;-71
2021/01/26 07:25:44;;;;;;;40.55;12.35;;;;;;;;;;8195244;28;20485;-72
2021/01/26 07:30:18;;;;;;;29.08;12.43;;;;;;;;;;8191376;28;20384;-72
2021/01/26 07:34:57;;;;;;;25.65;11.48;;;;;;;;;;8193992;28;20497;-72
2021/01/26 07:39:09;;;;;;;54.83;17.30;;;;;;;;;;8194108;28;20365;-72
2021/01/26 07:44:13;;;;;;;25.33;11.07;;;;;;;;;;8194583;28;20139;-72
2021/01/26 07:48:28;;;;;;;142.52;43.45;;;;;;;;;;8187311;28;20476;-71
2021/01/26 07:52:35;;;;;;;39.42;14.43;;;;;;;;;;8192899;28;20049;-71
2021/01/26 07:56:41;;;;;;;23.55;10.85;;;;;;;;;;8192914;28;20420;-72
2021/01/26 08:00:50;;;;;;;30.92;14.90;;;;;;;;;;8194506;28;20469;-71
2021/01/26 08:04:54;;;;;;;25.05;11.05;;;;;;;;;;8193991;28;20465;-72
2021/01/26 08:08:57;;;;;;;24.90;11.27;;;;;;;;;;8191801;28;20097;-72
2021/01/26 08:13:03;;;;;;;30.25;11.85;;;;;;;;;;8193544;28;20076;-72
2021/01/26 08:17:11;;;;;;;34.35;14.85;;;;;;;;;;8192592;28;20041;-71
2021/01/26 08:21:31;;;;;;;;;;;;;;;;;;8192157;28;20054;-72
2021/01/26 08:25:42;;;;;;;31.48;13.82;;;;;;;;;;8193034;28;20340;-71
2021/01/26 08:29:45;;;;;;;21.75;9.20;;;;;;;;;;8191255;28;20132;-71
2021/01/26 08:33:55;;;;;;;19.33;9.90;;;;;;;;;;8191906;28;20499;-71
2021/01/26 08:37:59;;;;;;;19.52;8.57;;;;;;;;;;8191594;28;20509;-71
2021/01/26 08:42:02;;;;;;;16.35;7.88;;;;;;;;;;8192914;28;20481;-71
2021/01/26 08:46:05;;;;;;;19.35;8.20;;;;;;;;;;8191039;28;20484;-70
2021/01/26 08:50:33;;;;;;;22.48;9.10;;;;;;;;;;8192952;28;20080;-70
2021/01/26 08:54:46;;;;;;;19.65;9.32;;;;;;;;;;8192706;28;20491;-70
2021/01/26 08:58:57;;;;;;;22.40;9.50;;;;;;;;;;8191543;28;20368;-70
2021/01/26 09:03:38;;;;;;;19.92;9.63;;;;;;;;;;8190224;28;20071;-70
2021/01/26 09:07:56;;;;;;;17.08;8.65;;;;;;;;;;8175497;28;20389;-71
2021/01/26 09:12:08;;;;;;;21.20;8.90;;;;;;;;;;8190988;28;20495;-70
2021/01/26 09:16:28;;;;;;;27.17;10.82;;;;;;;;;;8192060;28;20409;-70
2021/01/26 09:20:33;;;;;;;29.45;11.40;;;;;;;;;;8175289;28;20050;-70
2021/01/26 09:24:37;;;;;;;39.13;13.63;;;;;;;;;;8189914;28;20487;-71
2021/01/26 09:28:47;;;;;;;22.50;9.60;;;;;;;;;;8140223;28;20046;-70
2021/01/26 09:33:23;;;;;;;16.42;8.60;;;;;;;;;;8191569;28;20395;-70
2021/01/26 09:37:26;;;;;;;19.75;8.82;;;;;;;;;;8190247;28;20361;-71
2021/01/26 09:41:32;;;;;;;17.25;7.22;;;;;;;;;;8191369;28;20385;-70
2021/01/26 09:45:36;;;;;;;30.30;11.32;;;;;;;;;;8181113;28;20464;-70
2021/01/26 09:49:39;;;;;;;26.95;10.00;;;;;;;;;;8198145;28;20361;-70
2021/01/26 09:53:45;;;;;;;20.42;9.90;;;;;;;;;;8180271;28;20479;-70
2021/01/26 09:57:49;;;;;;;54.60;18.00;;;;;;;;;;8196604;28;20061;-70
2021/01/26 10:01:54;;;;;;;27.83;13.25;;;;;;;;;;8196034;28;20510;-70
2021/01/26 10:05:59;;;;;;;23.80;12.68;;;;;;;;;;8196078;28;20404;-70
2021/01/26 10:10:28;;;;;;;41.95;17.27;;;;;;;;;;8180356;28;20492;-70
2021/01/26 10:14:32;;;;;;;118.20;76.65;;;;;;;;;;8196245;28;20066;-73
2021/01/26 10:18:42;;;;;;;32.80;15.70;;;;;;;;;;8197157;28;20377;-71
2021/01/26 10:22:45;;;;;;;37.85;17.50;;;;;;;;;;8195569;28;20480;-70
2021/01/26 10:26:49;;;;;;;36.92;19.17;;;;;;;;;;8197496;28;20416;-70
2021/01/26 10:30:54;;;;;;;23.55;11.48;;;;;;;;;;8196820;28;20396;-71
2021/01/26 10:34:57;;;;;;;23.73;13.68;;;;;;;;;;8195798;28;20461;-70
2021/01/26 10:39:30;;;;;;;37.63;16.50;;;;;;;;;;8195410;28;20489;-70
2021/01/26 10:43:35;;;;;;;25.80;12.77;;;;;;;;;;8178162;28;20362;-73
2021/01/26 10:47:41;;;;;;;25.52;11.52;;;;;;;;;;8195202;28;20062;-71
2021/01/26 10:51:46;;;;;;;25.42;11.07;;;;;;;;;;8195236;28;20038;-71
2021/01/26 10:55:49;;;;;;;21.40;11.65;;;;;;;;;;8193271;28;20366;-71
2021/01/26 10:59:53;;;;;;;23.60;10.00;;;;;;;;;;8196564;28;20068;-71
2021/01/26 11:03:56;;;;;;;35.38;14.57;;;;;;;;;;8195717;28;20483;-71
2021/01/26 11:07:59;;;;;;;31.63;14.02;;;;;;;;;;8195582;28;20484;-71
2021/01/26 11:12:04;;;;;;;38.67;15.52;;;;;;;;;;8196202;28;20504;-72
2021/01/26 11:16:07;;;;;;;24.20;10.82;;;;;;;;;;8178444;28;20392;-72
2021/01/26 11:20:12;;;;;;;22.17;9.32;;;;;;;;;;8195464;28;20045;-72
2021/01/26 11:24:15;;;;;;;23.33;9.93;;;;;;;;;;8193499;28;20468;-72
2021/01/26 11:28:19;;;;;;;23.73;9.80;;;;;;;;;;8177515;28;20354;-72
2021/01/26 11:32:22;;;;;;;19.85;9.77;;;;;;;;;;8195033;28;20461;-71
2021/01/26 11:36:25;;;;;;;25.83;12.77;;;;;;;;;;8194768;28;20465;-72
2021/01/26 11:40:29;;;;;;;23.02;10.07;;;;;;;;;;8193650;28;20358;-72
2021/01/26 11:44:33;;;;;;;21.83;10.43;;;;;;;;;;8194730;28;20520;-72
2021/01/26 11:48:36;;;;;;;23.48;11.38;;;;;;;;;;8194847;28;20058;-72
2021/01/26 11:52:39;;;;;;;17.15;7.85;;;;;;;;;;8194324;28;20080;-72
2021/01/26 11:56:44;;;;;;;17.35;8.50;;;;;;;;;;8194275;28;20050;-72
2021/01/26 12:00:47;;;;;;;22.42;9.65;;;;;;;;;;8193186;28;20484;-72
2021/01/26 12:04:50;;;;;;;18.48;8.65;;;;;;;;;;8194501;28;20057;-72
2021/01/26 12:08:53;;;;;;;108.00;73.82;;;;;;;;;;8193721;28;20384;-72
2021/01/26 12:12:57;;;;;;;55.92;27.83;;;;;;;;;;8193523;28;20469;-73
2021/01/26 12:17:00;;;;;;;25.85;15.10;;;;;;;;;;8193454;28;20361;-72
2021/01/26 12:21:04;;;;;;;39.13;19.33;;;;;;;;;;8193396;28;20358;-74
2021/01/26 12:25:09;;;;;;;43.58;30.27;;;;;;;;;;8191993;28;20564;-72
2021/01/26 12:29:13;;;;;;;28.55;15.10;;;;;;;;;;8192257;28;20388;-72
2021/01/26 12:33:17;;;;;;;33.55;14.30;;;;;;;;;;8192320;28;20457;-73
2021/01/26 12:37:20;;;;;;;16.88;8.85;;;;;;;;;;8190974;28;20377;-72
2021/01/26 12:41:24;;;;;;;19.50;11.85;;;;;;;;;;8193424;28;20378;-72
2021/01/26 12:45:30;;;;;;;17.33;8.60;;;;;;;;;;8191663;28;20372;-72
2021/01/26 12:49:33;;;;;;;16.75;8.55;;;;;;;;;;8193068;28;20464;-72
2021/01/26 12:53:36;;;;;;;19.88;9.30;;;;;;;;;;8191061;28;20376;-72
2021/01/26 12:57:39;;;;;;;16.98;9.30;;;;;;;;;;8192661;28;20476;-72
2021/01/26 13:01:43;;;;;;;23.08;10.55;;;;;;;;;;8191227;28;20484;-72
2021/01/26 13:05:48;;;;;;;19.33;8.95;;;;;;;;;;8192512;28;20473;-72
2021/01/26 13:09:52;;;;;;;25.17;12.77;;;;;;;;;;8192508;28;20373;-72
2021/01/26 13:13:55;;;;;;;22.45;11.18;;;;;;;;;;8192388;28;20413;-73
2021/01/26 13:17:59;;;;;;;28.02;12.43;;;;;;;;;;8191281;28;20514;-72
2021/01/26 13:22:02;;;;;;;27.90;13.68;;;;;;;;;;8192531;28;20385;-72
2021/01/26 13:26:05;;;;;;;24.00;12.13;;;;;;;;;;8192705;28;20452;-72
2021/01/26 13:30:12;;;;;;;20.20;11.45;;;;;;;;;;8159102;28;20420;-72
2021/01/26 13:34:20;;;;;;;20.83;8.68;;;;;;;;;;8192428;28;20353;-71
2021/01/26 13:38:27;;;;;;;15.88;8.40;;;;;;;;;;8190563;28;20369;-72
2021/01/26 13:42:31;;;;;;;15.30;7.90;;;;;;;;;;8191529;28;20487;-73
2021/01/26 13:46:35;;;;;;;16.83;8.88;;;;;;;;;;8191538;28;20464;-73
2021/01/26 13:50:38;;;;;;;20.20;9.75;;;;;;;;;;8191305;28;20484;-73
2021/01/26 13:54:42;;;;;;;19.95;9.30;;;;;;;;;;8191712;28;20499;-73
2021/01/26 13:58:45;;;;;;;39.75;16.75;;;;;;;;;;8191875;28;20388;-73
2021/01/26 14:02:54;;;;;;;25.10;10.48;;;;;;;;;;8192170;28;20113;-74
2021/01/26 14:07:01;;;;;;;27.63;11.63;;;;;;;;;;8191170;28;20376;-73
2021/01/26 14:11:04;;;;;;;26.55;12.23;;;;;;;;;;8191464;28;20404;-73
2021/01/26 14:15:08;;;;;;;32.63;15.75;;;;;;;;;;8187320;28;20380;-74
2021/01/26 14:19:12;;;;;;;59.10;25.52;;;;;;;;;;8190679;28;20373;-72
2021/01/26 14:23:15;;;;;;;275.73;107.75;;;;;;;;;;8189001;28;20481;-73
2021/01/26 14:27:19;;;;;;;88.85;43.83;;;;;;;;;;8173626;28;20370;-73
2021/01/26 14:31:23;;;;;;;44.40;19.30;;;;;;;;;;8161885;28;20054;-72
2021/01/26 14:35:35;;;;;;;40.83;17.77;;;;;;;;;;8162428;28;20051;-74
2021/01/26 14:39:38;;;;;;;49.80;23.08;;;;;;;;;;8161954;28;20034;-74
2021/01/26 14:43:42;;;;;;;93.13;34.42;;;;;;;;;;8164423;28;20069;-73
2021/01/26 14:47:45;;;;;;;332.23;94.38;;;;;;;;;;8162314;28;20501;-73
2021/01/26 14:51:48;;;;;;;57.70;27.33;;;;;;;;;;8164653;28;20469;-73
2021/01/26 14:55:52;;;;;;;42.35;23.60;;;;;;;;;;8161709;28;20366;-75
2021/01/26 14:59:55;;;;;;;61.30;26.17;;;;;;;;;;8159797;28;20461;-74
2021/01/26 15:03:58;;;;;;;87.00;42.35;;;;;;;;;;8162208;28;20362;-74
2021/01/26 15:08:02;;;;;;;56.15;27.05;;;;;;;;;;8162416;28;20389;-73
2021/01/26 15:12:06;;;;;;;46.35;23.45;;;;;;;;;;8163395;28;20359;-73
2021/01/26 15:16:12;;;;;;;53.78;30.20;;;;;;;;;;8161148;28;20481;-73
2021/01/26 15:20:21;;;;;;;46.13;21.38;;;;;;;;;;8145798;28;20068;-74
2021/01/26 15:24:25;;;;;;;32.45;15.10;;;;;;;;;;8162081;28;20469;-73
2021/01/26 15:28:28;;;;;;;40.15;18.27;;;;;;;;;;8161104;28;20080;-73
2021/01/26 15:32:34;;;;;;;55.67;31.27;;;;;;;;;;8145050;28;20042;-74
2021/01/26 15:36:38;;;;;;;39.95;21.92;;;;;;;;;;8143596;28;20464;-73
2021/01/26 15:40:42;;;;;;;42.35;23.48;;;;;;;;;;8161583;28;20461;-73
2021/01/26 15:44:46;;;;;;;61.10;26.05;;;;;;;;;;8159734;28;20384;-73
2021/01/26 15:48:50;;;;;;;54.20;21.83;;;;;;;;;;8170750;28;20500;-73
2021/01/26 15:52:54;;;;;;;91.57;36.95;;;;;;;;;;8191128;28;20479;-73
2021/01/26 15:57:02;;;;;;;51.05;21.20;;;;;;;;;;8139706;28;20412;-74
2021/01/26 16:01:06;;;;;;;45.85;24.10;;;;;;;;;;8188387;28;20361;-75
2021/01/26 16:05:11;;;;;;;43.50;24.65;;;;;;;;;;8170836;28;20464;-73
2021/01/26 16:09:15;;;;;;;43.75;24.73;;;;;;;;;;8152016;28;20499;-74
2021/01/26 16:13:18;;;;;;;39.05;19.08;;;;;;;;;;8187441;28;20484;-74
2021/01/26 16:17:24;;;;;;;39.13;18.60;;;;;;;;;;8165075;28;20384;-73
2021/01/26 16:21:29;;;;;;;46.47;20.63;;;;;;;;;;8170795;28;20473;-74
2021/01/26 16:25:32;;;;;;;115.35;43.22;;;;;;;;;;8186530;28;20384;-73
2021/01/26 16:29:35;;;;;;;58.55;25.42;;;;;;;;;;8157097;28;20042;-72
2021/01/26 16:33:38;;;;;;;58.72;30.45;;;;;;;;;;8160690;28;20370;-72
2021/01/26 16:37:43;;;;;;;91.60;38.67;;;;;;;;;;8157202;28;20424;-73
2021/01/26 16:41:46;;;;;;;65.88;32.20;;;;;;;;;;8192759;28;20392;-74
2021/01/26 16:45:50;;;;;;;42.53;20.40;;;;;;;;;;8190179;28;20384;-72
2021/01/26 16:49:53;;;;;;;108.28;44.80;;;;;;;;;;8190129;28;20472;-72
2021/01/26 16:53:59;;;;;;;129.05;52.40;;;;;;;;;;8190265;28;20354;-73
2021/01/26 16:58:03;;;;;;;109.65;45.63;;;;;;;;;;8189890;28;20160;-72
2021/01/26 17:02:15;;;;;;;134.68;51.13;;;;;;;;;;8173170;28;20391;-74
2021/01/26 17:06:30;;;;;;;101.38;37.70;;;;;;;;;;8189402;28;20046;-73
2021/01/26 17:10:34;;;;;;;118.18;45.17;;;;;;;;;;8191244;28;20050;-73
2021/01/26 17:14:38;;;;;;;152.02;53.70;;;;;;;;;;8187864;28;20476;-74
2021/01/26 17:18:44;;;;;;;174.00;60.28;;;;;;;;;;8190020;28;20460;-74
2021/01/26 17:22:47;;;;;;;129.07;49.20;;;;;;;;;;8165469;28;20474;-74
2021/01/26 17:26:51;;;;;;;103.90;39.30;;;;;;;;;;8154829;28;20427;-74
2021/01/26 17:30:58;;;;;;;121.32;50.63;;;;;;;;;;8158137;28;20362;-73
2021/01/26 17:35:04;;;;;;;158.90;62.17;;;;;;;;;;8157891;28;20389;-73
2021/01/26 17:39:08;;;;;;;181.90;81.75;;;;;;;;;;8154946;28;20805;-73
2021/01/26 17:43:29;;;;;;;167.27;72.18;;;;;;;;;;8158494;28;20351;-73
2021/01/26 17:47:32;;;;;;;180.65;71.97;;;;;;;;;;8157319;28;20097;-73
2021/01/26 17:51:35;;;;;;;145.65;61.95;;;;;;;;;;8158484;28;20381;-73
2021/01/26 17:55:39;;;;;;;128.13;50.38;;;;;;;;;;8124522;28;20496;-73
2021/01/26 17:59:43;;;;;;;123.47;48.50;;;;;;;;;;8158490;28;20385;-73
2021/01/26 18:03:49;;;;;;;111.05;41.72;;;;;;;;;;8161039;28;20111;-73
2021/01/26 18:07:56;;;;;;;119.60;49.17;;;;;;;;;;8164889;28;20081;-74
2021/01/26 18:12:00;;;;;;;136.20;54.43;;;;;;;;;;8184816;28;20489;-73
2021/01/26 18:16:03;;;;;;;115.07;46.72;;;;;;;;;;8195333;28;20499;-73
2021/01/26 18:20:08;;;;;;;126.93;47.03;;;;;;;;;;8197883;28;20358;-73
2021/01/26 18:24:16;;;;;;;110.28;44.40;;;;;;;;;;8178147;28;20433;-73
2021/01/26 18:28:21;;;;;;;111.70;44.50;;;;;;;;;;8194500;28;20524;-73
2021/01/26 18:32:26;;;;;;;110.72;43.88;;;;;;;;;;8176799;28;20377;-74
2021/01/26 18:36:33;;;;;;;101.65;44.40;;;;;;;;;;8177630;28;20387;-73
2021/01/26 18:40:37;;;;;;;115.93;49.47;;;;;;;;;;8195586;28;20041;-73
2021/01/26 18:44:43;;;;;;;130.82;52.70;;;;;;;;;;8196577;28;20408;-73
2021/01/26 18:48:46;;;;;;;100.40;37.95;;;;;;;;;;8192877;28;20061;-73
2021/01/26 18:52:54;;;;;;;88.30;40.42;;;;;;;;;;8195759;28;20487;-74
2021/01/26 18:56:58;;;;;;;243.05;60.30;;;;;;;;;;8192685;28;20372;-73
2021/01/26 19:01:01;;;;;;;662.40;155.45;;;;;;;;;;8191395;28;20468;-73
2021/01/26 19:05:06;;;;;;;1283.10;389.85;;;;;;;;;;8195638;28;20392;-73
2021/01/26 19:09:09;;;;;;;743.53;208.57;;;;;;;;;;8176964;28;20376;-73
2021/01/26 19:13:13;;;;;;;312.13;75.30;;;;;;;;;;8195311;28;20066;-73
2021/01/26 19:17:17;;;;;;;277.20;66.00;;;;;;;;;;8191594;28;20373;-72
2021/01/26 19:21:25;;;;;;;84.18;34.40;;;;;;;;;;8193590;28;20057;-73
2021/01/26 19:25:30;;;;;;;;;;;;;;;;;;8193530;28;20486;-73
2021/01/26 19:29:35;;;;;;;152.27;39.22;;;;;;;;;;8192044;28;20372;-73
2021/01/26 19:33:41;;;;;;;89.53;33.00;;;;;;;;;;8194025;28;20385;-73
2021/01/26 19:37:47;;;;;;;176.07;44.22;;;;;;;;;;8175189;28;20388;-73
2021/01/26 19:41:52;;;;;;;101.55;31.60;;;;;;;;;;8189867;28;20508;-73
2021/01/26 19:45:56;;;;;;;119.13;37.90;;;;;;;;;;8122914;28;20073;-73
2021/01/26 19:50:00;;;;;;;83.05;31.70;;;;;;;;;;8169866;28;20407;-73
2021/01/26 19:54:07;;;;;;;98.50;35.20;;;;;;;;;;8186732;28;20416;-72
2021/01/26 19:58:20;;;;;;;65.40;27.83;;;;;;;;;;8169482;28;20479;-73
2021/01/26 20:02:27;;;;;;;84.78;30.70;;;;;;;;;;8137746;28;20090;-73
2021/01/26 20:06:32;;;;;;;77.55;27.40;;;;;;;;;;8082228;28;20488;-72
2021/01/26 20:10:36;;;;;;;85.03;27.23;;;;;;;;;;8153432;28;20355;-72
2021/01/26 20:14:39;;;;;;;74.32;27.67;;;;;;;;;;8137638;28;20366;-72
2021/01/26 20:18:43;;;;;;;153.95;37.88;;;;;;;;;;8135989;28;20428;-72
2021/01/26 20:22:47;;;;;;;115.05;32.33;;;;;;;;;;8152897;28;20476;-73
2021/01/26 20:26:51;;;;;;;66.60;21.48;;;;;;;;;;8150588;28;20397;-71
2021/01/26 20:30:55;;;;;;;64.07;23.65;;;;;;;;;;8152415;28;20465;-73
2021/01/26 20:35:01;;;;;;;61.10;19.73;;;;;;;;;;8159225;28;20477;-73
2021/01/26 20:39:06;;;;;;;65.75;20.60;;;;;;;;;;8154220;28;20469;-71
2021/01/26 20:43:10;;;;;;;61.05;21.50;;;;;;;;;;8123459;28;20378;-71
2021/01/26 20:47:14;;;;;;;55.88;21.67;;;;;;;;;;8151744;28;20402;-72
2021/01/26 20:51:18;;;;;;;58.88;19.73;;;;;;;;;;8121310;28;20492;-74
2021/01/26 20:55:21;;;;;;;53.42;19.52;;;;;;;;;;8156594;28;20481;-71
2021/01/26 20:59:25;;;;;;;59.10;21.08;;;;;;;;;;8151035;28;20596;-73
2021/01/26 21:03:31;;;;;;;65.57;25.10;;;;;;;;;;8155550;28;20392;-71
2021/01/26 21:07:34;;;;;;;57.72;20.85;;;;;;;;;;8152236;28;20485;-71
2021/01/26 21:11:42;;;;;;;71.57;22.30;;;;;;;;;;8154727;28;20487;-71
2021/01/26 21:15:45;;;;;;;37.88;17.23;;;;;;;;;;8153300;28;20050;-72
2021/01/26 21:19:49;;;;;;;41.35;17.67;;;;;;;;;;8169386;28;20469;-71
2021/01/26 21:23:53;;;;;;;35.15;15.02;;;;;;;;;;8154410;28;20425;-71
2021/01/26 21:27:57;;;;;;;30.85;12.80;;;;;;;;;;8154293;28;20058;-71
2021/01/26 21:32:03;;;;;;;30.73;12.77;;;;;;;;;;8156384;28;20062;-72
2021/01/26 21:36:07;;;;;;;28.45;13.63;;;;;;;;;;8152558;28;20485;-72
2021/01/26 21:40:12;;;;;;;34.05;14.93;;;;;;;;;;8154615;28;20466;-72
2021/01/26 21:44:16;;;;;;;40.33;16.33;;;;;;;;;;8155069;28;20396;-73
2021/01/26 21:48:19;;;;;;;33.40;14.75;;;;;;;;;;8153963;28;20787;-73
2021/01/26 21:52:23;;;;;;;42.47;16.90;;;;;;;;;;8139081;28;20088;-72
2021/01/26 21:56:27;;;;;;;49.40;17.40;;;;;;;;;;8153444;28;20054;-71
2021/01/26 22:00:31;;;;;;;47.47;18.42;;;;;;;;;;8155136;28;20470;-72
2021/01/26 22:04:38;;;;;;;51.33;17.58;;;;;;;;;;8156640;28;20050;-71
2021/01/26 22:08:41;;;;;;;54.25;18.38;;;;;;;;;;8154610;28;20376;-71
2021/01/26 22:12:45;;;;;;;82.88;24.48;;;;;;;;;;8155385;28;20117;-71
2021/01/26 22:16:48;;;;;;;68.90;21.52;;;;;;;;;;8151439;28;20382;-72
2021/01/26 22:20:51;;;;;;;84.82;23.63;;;;;;;;;;8155261;28;20470;-72
2021/01/26 22:24:54;;;;;;;48.05;18.52;;;;;;;;;;8153858;28;20473;-72
2021/01/26 22:28:57;;;;;;;94.20;26.63;;;;;;;;;;8152640;28;20499;-71
2021/01/26 22:33:00;;;;;;;149.45;36.28;;;;;;;;;;8153780;28;20389;-72
2021/01/26 22:37:04;;;;;;;206.77;43.10;;;;;;;;;;8152649;28;20385;-72
2021/01/26 22:41:07;;;;;;;200.93;43.88;;;;;;;;;;8154821;28;20358;-72
2021/01/26 22:45:13;;;;;;;242.20;47.45;;;;;;;;;;8152514;28;20520;-72
2021/01/26 22:49:16;;;;;;;66.93;22.70;;;;;;;;;;8152892;28;20039;-72
2021/01/26 22:53:19;;;;;;;57.65;20.08;;;;;;;;;;8159160;28;20046;-72
2021/01/26 22:57:22;;;;;;;43.83;17.20;;;;;;;;;;8158492;28;20378;-73
2021/01/26 23:01:25;;;;;;;46.78;17.75;;;;;;;;;;8157515;28;20068;-72
2021/01/26 23:05:29;;;;;;;52.28;19.55;;;;;;;;;;8158067;28;20461;-73
2021/01/26 23:09:33;;;;;;;42.72;17.35;;;;;;;;;;8159172;28;20475;-72
2021/01/26 23:13:37;;;;;;;39.55;16.98;;;;;;;;;;8157991;28;20493;-72
2021/01/26 23:17:39;;;;;;;73.82;24.95;;;;;;;;;;8158528;28;20457;-72
2021/01/26 23:21:43;;;;;;;59.28;19.92;;;;;;;;;;8158963;28;20054;-72
2021/01/26 23:25:46;;;;;;;45.13;17.75;;;;;;;;;;8155788;28;20054;-72
2021/01/26 23:29:49;;;;;;;47.33;18.65;;;;;;;;;;8170226;28;20066;-73
2021/01/26 23:33:52;;;;;;;46.85;17.13;;;;;;;;;;8160303;28;20405;-72
2021/01/26 23:37:56;;;;;;;58.40;20.63;;;;;;;;;;8155655;28;20678;-75
2021/01/26 23:42:00;;;;;;;41.40;18.27;;;;;;;;;;8157235;28;20470;-72
2021/01/26 23:46:03;;;;;;;41.35;15.57;;;;;;;;;;8157053;28;20397;-72
2021/01/26 23:50:13;;;;;;;44.60;17.35;;;;;;;;;;8157915;28;20374;-74
2021/01/26 23:54:16;;;;;;;37.80;15.27;;;;;;;;;;8156864;28;20411;-72
2021/01/26 23:58:20;;;;;;;43.58;17.08;;;;;;;;;;8153677;28;20370;-72
